Time;durP1;ratioP1;P1;durP2;ratioP2;P2;SDS_P1;SDS_P2;PMS_P1;PMS_P2;Temp;Humidity;BMP_temperature;BMP_pressure;BME280_temperature;BME280_humidity;BME280_pressure;Samples;Min_cycle;Max_cycle;Signal;HPM_P1;HPM_P2
2023/03/31 00:04:05;;;;;;;6.77;2.77;;;7.70;99.90;;;;;;8312636;28;20185;-79
2023/03/31 00:08:08;;;;;;;3.50;1.90;;;7.70;99.90;;;;;;8311982;28;20187;-81
2023/03/31 00:12:09;;;;;;;3.20;1.93;;;7.60;99.90;;;;;;8304166;28;20214;-82
2023/03/31 00:16:09;;;;;;;3.83;2.00;;;7.60;99.90;;;;;;8307189;28;20529;-80
2023/03/31 00:20:11;;;;;;;2.80;1.57;;;7.60;99.90;;;;;;8313489;28;20210;-80
2023/03/31 00:24:13;;;;;;;2.90;1.70;;;7.60;99.90;;;;;;8306116;28;20195;-80
2023/03/31 00:28:14;;;;;;;3.03;1.70;;;7.50;99.90;;;;;;8313235;28;20191;-81
2023/03/31 00:32:15;;;;;;;4.37;2.00;;;7.50;99.90;;;;;;8316598;28;20210;-81
2023/03/31 00:36:20;;;;;;;4.23;2.40;;;7.40;99.90;;;;;;8310518;28;20238;-80
2023/03/31 00:40:20;;;;;;;5.33;2.00;;;7.50;99.90;;;;;;8314763;28;20187;-80
2023/03/31 00:44:25;;;;;;;4.13;2.17;;;7.70;99.90;;;;;;8318175;28;20186;-81
2023/03/31 00:48:30;;;;;;;6.40;2.13;;;7.80;99.90;;;;;;8313674;28;20191;-81
2023/03/31 00:52:36;;;;;;;4.00;2.10;;;8.00;99.90;;;;;;8310966;28;20237;-81
2023/03/31 00:56:42;;;;;;;3.97;1.90;;;8.10;99.90;;;;;;8309346;28;20197;-83
2023/03/31 01:00:43;;;;;;;3.43;1.83;;;8.30;99.90;;;;;;8316917;28;20194;-81
2023/03/31 01:04:49;;;;;;;6.33;2.00;;;8.30;99.90;;;;;;8318524;28;20186;-81
2023/03/31 01:08:51;;;;;;;4.40;2.10;;;8.40;99.90;;;;;;8311107;28;20207;-81
2023/03/31 01:12:54;;;;;;;3.73;1.93;;;8.40;99.90;;;;;;8311657;28;20214;-82
2023/03/31 01:16:55;;;;;;;3.80;2.00;;;8.40;99.90;;;;;;8306961;28;20229;-82
2023/03/31 01:21:02;;;;;;;4.50;2.60;;;8.40;99.90;;;;;;8313665;28;20206;-81
2023/03/31 01:25:21;;;;;;;3.33;1.77;;;8.30;99.90;;;;;;8311153;28;20175;-82
2023/03/31 01:29:35;;;;;;;3.33;1.80;;;8.20;99.90;;;;;;8302088;28;20199;-81
2023/03/31 01:33:50;;;;;;;3.43;1.83;;;8.10;99.90;;;;;;8308679;28;20199;-82
2023/03/31 01:38:15;;;;;;;5.07;2.30;;;8.00;99.90;;;;;;8312077;28;20274;-82
2023/03/31 01:42:31;;;;;;;5.63;2.10;;;8.10;99.90;;;;;;8305746;28;20265;-82
2023/03/31 01:46:54;;;;;;;4.33;2.13;;;8.10;99.90;;;;;;8301856;28;20193;-81
2023/03/31 01:51:12;;;;;;;4.17;2.03;;;8.00;99.90;;;;;;8303281;28;20245;-82
2023/03/31 01:55:23;;;;;;;5.37;2.17;;;7.90;99.90;;;;;;8303277;28;20278;-82
2023/03/31 01:59:33;;;;;;;2.90;1.80;;;7.90;99.90;;;;;;8308547;28;20187;-82
2023/03/31 02:03:42;;;;;;;7.13;2.00;;;7.90;99.90;;;;;;8324551;28;20187;-81
2023/03/31 02:07:49;;;;;;;4.33;1.90;;;7.90;99.90;;;;;;8313351;28;20183;-82
2023/03/31 02:11:52;;;;;;;3.97;1.50;;;7.90;99.90;;;;;;8318434;28;20214;-81
2023/03/31 02:15:58;;;;;;;3.67;1.83;;;7.80;99.90;;;;;;8307017;28;20180;-81
2023/03/31 02:20:05;;;;;;;3.00;1.70;;;7.80;99.90;;;;;;8309881;28;20214;-82
2023/03/31 02:24:11;;;;;;;3.07;1.67;;;7.70;99.90;;;;;;8308308;28;20202;-82
2023/03/31 02:28:17;;;;;;;3.97;1.90;;;7.60;99.90;;;;;;8309337;28;20202;-82
2023/03/31 02:32:34;;;;;;;3.93;1.80;;;7.40;99.90;;;;;;8303522;28;20202;-82
2023/03/31 02:36:35;;;;;;;6.53;2.03;;;7.30;99.90;;;;;;8302690;28;20262;-81
2023/03/31 02:40:36;;;;;;;4.40;1.90;;;7.20;99.90;;;;;;8313313;28;20253;-81
2023/03/31 02:44:38;;;;;;;2.93;2.00;;;7.20;99.90;;;;;;8306076;28;20280;-81
2023/03/31 02:48:44;;;;;;;1.67;1.33;;;7.10;99.90;;;;;;8304801;28;20187;-81
2023/03/31 02:53:16;;;;;;;2.53;1.43;;;7.10;99.90;;;;;;8319136;28;20206;-81
2023/03/31 02:57:36;;;;;;;5.40;2.00;;;7.00;99.90;;;;;;8306331;28;20195;-81
2023/03/31 03:01:47;;;;;;;6.23;2.03;;;7.00;99.90;;;;;;8298877;28;20309;-81
2023/03/31 03:05:57;;;;;;;4.23;1.73;;;6.90;99.90;;;;;;8301128;28;20188;-81
2023/03/31 03:10:20;;;;;;;5.20;2.07;;;6.90;99.90;;;;;;8297090;28;20530;-82
2023/03/31 03:14:35;;;;;;;4.33;2.00;;;6.80;99.90;;;;;;8313082;28;20262;-81
2023/03/31 03:18:36;;;;;;;3.50;1.47;;;6.80;99.90;;;;;;8314289;28;20205;-81
2023/03/31 03:22:38;;;;;;;3.27;1.63;;;6.80;99.90;;;;;;8310400;28;20484;-81
2023/03/31 03:26:40;;;;;;;2.83;1.93;;;6.80;99.90;;;;;;8317345;28;20197;-81
2023/03/31 03:30:41;;;;;;;4.87;1.80;;;6.80;99.90;;;;;;8311353;28;20210;-81
2023/03/31 03:34:42;;;;;;;3.63;1.70;;;6.80;99.90;;;;;;8313890;28;20210;-81
2023/03/31 03:38:43;;;;;;;5.30;1.73;;;6.90;99.90;;;;;;8308845;28;20178;-81
2023/03/31 03:42:44;;;;;;;4.43;1.43;;;7.00;99.90;;;;;;8317910;28;20222;-80
2023/03/31 03:46:45;;;;;;;4.63;1.60;;;7.10;99.90;;;;;;8313974;28;20190;-81
2023/03/31 03:50:46;;;;;;;5.13;1.73;;;7.20;99.90;;;;;;8315718;28;20292;-82
2023/03/31 03:54:48;;;;;;;4.03;1.70;;;7.20;99.90;;;;;;8309683;28;20190;-81
2023/03/31 03:58:48;;;;;;;3.47;1.47;;;7.10;99.90;;;;;;8318946;28;20194;-82
2023/03/31 04:02:49;;;;;;;5.67;1.70;;;7.10;99.90;;;;;;8317438;28;20190;-81
2023/03/31 04:06:51;;;;;;;3.30;1.60;;;7.10;99.90;;;;;;8313179;28;20229;-81
2023/03/31 04:10:52;;;;;;;3.73;1.33;;;7.00;99.90;;;;;;8318138;28;20225;-80
2023/03/31 04:14:52;;;;;;;2.63;1.50;;;6.90;99.90;;;;;;8310080;28;20183;-82
2023/03/31 04:18:58;;;;;;;3.67;1.40;;;6.80;99.90;;;;;;8317518;28;20229;-81
2023/03/31 04:22:59;;;;;;;3.70;1.50;;;6.80;99.90;;;;;;8311219;28;20225;-81
2023/03/31 04:27:01;;;;;;;2.97;1.60;;;6.70;99.90;;;;;;8306436;28;20210;-81
2023/03/31 04:31:05;;;;;;;4.63;1.87;;;6.70;99.90;;;;;;8317394;28;20210;-81
2023/03/31 04:35:06;;;;;;;3.13;1.90;;;6.70;99.90;;;;;;8309290;28;20213;-81
2023/03/31 04:39:09;;;;;;;3.83;1.60;;;6.70;99.90;;;;;;8313268;28;20190;-81
2023/03/31 04:43:10;;;;;;;3.53;1.53;;;6.70;99.90;;;;;;8309841;28;20209;-81
2023/03/31 04:47:11;;;;;;;6.00;1.90;;;6.70;99.90;;;;;;8314776;28;20191;-81
2023/03/31 04:51:14;;;;;;;3.07;1.83;;;6.70;99.90;;;;;;8323392;28;20218;-78
2023/03/31 04:55:15;;;;;;;4.97;2.10;;;6.80;99.90;;;;;;8305993;28;20518;-77
2023/03/31 04:59:16;;;;;;;5.40;2.70;;;6.90;99.90;;;;;;8307754;28;20181;-77
2023/03/31 05:03:16;;;;;;;3.00;2.20;;;6.90;99.90;;;;;;8310429;28;20214;-78
2023/03/31 05:07:18;;;;;;;6.43;2.60;;;6.90;99.90;;;;;;8308734;28;20234;-78
2023/03/31 05:11:19;;;;;;;3.47;2.30;;;6.90;99.90;;;;;;8311158;28;20387;-78
2023/03/31 05:15:20;;;;;;;3.57;2.10;;;7.10;99.90;;;;;;8307513;28;20265;-79
2023/03/31 05:19:21;;;;;;;4.00;2.00;;;7.20;99.90;;;;;;8322423;28;20179;-78
2023/03/31 05:23:22;;;;;;;5.33;2.47;;;7.40;99.90;;;;;;8308291;28;20239;-78
2023/03/31 05:27:22;;;;;;;3.43;1.90;;;7.60;99.90;;;;;;8311738;28;20282;-78
2023/03/31 05:31:23;;;;;;;4.40;2.20;;;7.70;99.90;;;;;;8305145;28;20236;-79
2023/03/31 05:35:24;;;;;;;4.87;2.10;;;7.90;99.90;;;;;;8303768;28;20206;-78
2023/03/31 05:39:25;;;;;;;3.37;2.03;;;8.10;99.90;;;;;;8304443;28;20244;-78
2023/03/31 05:43:26;;;;;;;3.67;2.27;;;8.30;99.90;;;;;;8306156;28;20289;-78
2023/03/31 05:47:27;;;;;;;4.00;1.80;;;8.60;99.90;;;;;;8303611;28;20202;-78
2023/03/31 05:51:28;;;;;;;4.13;1.83;;;9.00;99.90;;;;;;8306136;28;20226;-79
2023/03/31 05:55:29;;;;;;;5.30;1.93;;;9.40;99.90;;;;;;8301876;28;20179;-78
2023/03/31 05:59:30;;;;;;;4.10;1.90;;;9.60;99.90;;;;;;8304959;28;20190;-78
2023/03/31 06:03:37;;;;;;;3.60;1.70;;;9.80;99.90;;;;;;8312348;28;20189;-77
2023/03/31 06:07:38;;;;;;;6.30;1.80;;;10.00;99.90;;;;;;8306042;28;20198;-78
2023/03/31 06:11:39;;;;;;;4.77;1.80;;;10.20;1.00;;;;;;8311810;28;20224;-80
2023/03/31 06:15:41;;;;;;;5.23;1.63;;;10.50;1.00;;;;;;8303586;28;20186;-77
2023/03/31 06:19:41;;;;;;;4.13;1.50;;;10.80;99.90;;;;;;8301634;28;20225;-78
2023/03/31 06:23:43;;;;;;;2.63;1.30;;;11.10;99.90;;;;;;8304063;28;20188;-80
2023/03/31 06:27:44;;;;;;;4.50;1.27;;;11.30;99.90;;;;;;8300695;28;20186;-77
2023/03/31 06:31:45;;;;;;;1.77;1.27;;;11.50;99.90;;;;;;8306979;28;20209;-78
2023/03/31 06:35:46;;;;;;;5.83;1.37;;;11.60;99.90;;;;;;8310136;28;20211;-78
2023/03/31 06:39:47;;;;;;;2.33;1.13;;;11.70;99.90;;;;;;8314029;28;20178;-78
2023/03/31 06:43:48;;;;;;;2.77;1.80;;;11.70;99.90;;;;;;8308638;28;20186;-78
2023/03/31 06:47:49;;;;;;;3.70;1.30;;;11.90;99.90;;;;;;8311886;28;20189;-77
2023/03/31 06:51:51;;;;;;;4.03;1.30;;;12.10;98.80;;;;;;8306278;28;20305;-76
2023/03/31 06:55:52;;;;;;;4.23;1.60;;;12.30;89.70;;;;;;8308450;28;20206;-77
2023/03/31 06:59:52;;;;;;;3.60;1.63;;;12.40;88.60;;;;;;8309909;28;20179;-76
2023/03/31 07:03:53;;;;;;;5.40;1.57;;;12.50;67.70;;;;;;8306711;28;20408;-78
2023/03/31 07:07:56;;;;;;;3.60;1.40;;;12.40;56.10;;;;;;8312807;28;20179;-78
2023/03/31 07:11:56;;;;;;;4.80;1.50;;;12.50;55.70;;;;;;8316485;28;20265;-77
2023/03/31 07:15:57;;;;;;;4.50;1.70;;;12.70;48.90;;;;;;8335943;28;20187;-76
2023/03/31 07:19:59;;;;;;;4.57;1.23;;;13.00;36.70;;;;;;8341842;28;20193;-77
2023/03/31 07:23:59;;;;;;;3.27;1.40;;;13.20;15.40;;;;;;8336821;28;20195;-78
2023/03/31 07:28:01;;;;;;;3.30;1.57;;;13.40;8.80;;;;;;8333112;28;20191;-77
2023/03/31 07:32:03;;;;;;;2.67;1.70;;;13.60;2.20;;;;;;8319008;28;20317;-76
2023/03/31 07:36:05;;;;;;;3.20;1.27;;;13.90;1.00;;;;;;8311403;28;20207;-77
2023/03/31 07:40:08;;;;;;;5.23;1.50;;;13.90;1.00;;;;;;8307104;28;20187;-78
2023/03/31 07:44:08;;;;;;;4.40;1.67;;;13.90;1.00;;;;;;8311458;28;20206;-77
2023/03/31 07:48:09;;;;;;;3.07;1.37;;;13.90;1.00;;;;;;8312477;28;20184;-78
2023/03/31 07:52:10;;;;;;;5.77;1.47;;;14.10;1.00;;;;;;8308661;28;20211;-76
2023/03/31 07:56:11;;;;;;;3.70;1.67;;;14.20;1.00;;;;;;8318702;28;20191;-77
2023/03/31 08:00:14;;;;;;;4.47;1.47;;;14.50;1.00;;;;;;8304940;28;20186;-77
2023/03/31 08:04:15;;;;;;;3.17;1.00;;;14.80;1.00;;;;;;8311617;28;20193;-77
2023/03/31 08:08:16;;;;;;;3.47;1.40;;;15.20;1.00;;;;;;8305270;28;20356;-77
2023/03/31 08:12:16;;;;;;;3.60;1.37;;;15.20;1.00;;;;;;8307031;28;20221;-78
2023/03/31 08:16:17;;;;;;;6.33;1.53;;;15.40;1.00;;;;;;8312266;28;20202;-76
2023/03/31 08:20:19;;;;;;;4.60;1.20;;;15.40;1.00;;;;;;8309847;28;20202;-76
2023/03/31 08:24:21;;;;;;;2.33;1.23;;;15.50;1.00;;;;;;8307704;28;20277;-76
2023/03/31 08:28:21;;;;;;;4.87;1.33;;;15.50;1.00;;;;;;8306120;28;20277;-78
2023/03/31 08:32:25;;;;;;;2.53;1.30;;;15.40;1.00;;;;;;8313521;28;20222;-78
2023/03/31 08:36:26;;;;;;;4.33;1.47;;;15.40;1.00;;;;;;8304243;28;20207;-77
2023/03/31 08:40:31;;;;;;;3.80;1.40;;;15.50;1.00;;;;;;8304235;28;20179;-78
2023/03/31 08:44:41;;;;;;;4.03;1.20;;;15.50;1.00;;;;;;8308662;28;20192;-77
2023/03/31 08:48:47;;;;;;;2.00;1.03;;;15.60;1.00;;;;;;8315789;28;20242;-78
2023/03/31 08:52:58;;;;;;;3.73;0.97;;;15.80;1.00;;;;;;8305342;28;20253;-78
2023/03/31 08:57:00;;;;;;;5.17;1.20;;;15.80;1.00;;;;;;8314776;28;20183;-77
2023/03/31 09:01:18;;;;;;;2.37;1.07;;;15.60;1.00;;;;;;8311809;28;20190;-78
2023/03/31 09:05:34;;;;;;;4.40;1.33;;;15.40;1.00;;;;;;8311648;28;20270;-78
2023/03/31 09:09:37;;;;;;;3.83;1.67;;;15.10;1.00;;;;;;8307410;28;20190;-77
2023/03/31 09:13:49;;;;;;;3.20;1.20;;;15.00;1.00;;;;;;8304905;28;20203;-78
2023/03/31 09:17:53;;;;;;;2.67;1.10;;;14.90;1.00;;;;;;8301454;28;20182;-79
2023/03/31 09:21:55;;;;;;;2.87;1.10;;;15.10;1.00;;;;;;8310443;28;20217;-79
2023/03/31 09:25:58;;;;;;;3.07;1.30;;;15.60;1.00;;;;;;8308917;28;20193;-77
2023/03/31 09:30:01;;;;;;;3.73;1.17;;;16.20;1.00;;;;;;8316647;28;20282;-78
2023/03/31 09:34:14;;;;;;;4.77;1.50;;;16.90;1.00;;;;;;8319155;28;20233;-78
2023/03/31 09:38:15;;;;;;;3.03;1.20;;;17.50;1.00;;;;;;8310750;28;20186;-77
2023/03/31 09:42:18;;;;;;;6.00;1.10;;;17.80;1.00;;;;;;8306784;28;20201;-77
2023/03/31 09:46:34;;;;;;;3.10;1.23;;;17.90;1.00;;;;;;8301431;28;20212;-77
2023/03/31 09:50:43;;;;;;;2.63;1.17;;;18.10;1.00;;;;;;8306377;28;20203;-77
2023/03/31 09:54:49;;;;;;;3.37;0.90;;;18.00;1.00;;;;;;8300229;28;20183;-77
2023/03/31 09:58:50;;;;;;;6.37;1.50;;;17.80;1.00;;;;;;8310298;28;20175;-78
2023/03/31 10:02:56;;;;;;;4.33;1.40;;;17.20;1.00;;;;;;8314144;28;20207;-78
2023/03/31 10:06:59;;;;;;;2.93;1.20;;;16.70;1.00;;;;;;8309733;28;20185;-77
2023/03/31 10:11:03;;;;;;;2.87;1.03;;;16.40;1.00;;;;;;8309598;28;20206;-78
2023/03/31 10:15:26;;;;;;;3.67;1.40;;;16.30;1.00;;;;;;8303735;28;20201;-78
2023/03/31 10:19:30;;;;;;;4.33;1.40;;;16.20;1.00;;;;;;8324153;28;20174;-77
2023/03/31 10:23:34;;;;;;;4.13;1.30;;;15.90;1.00;;;;;;8317310;28;20240;-77
2023/03/31 10:27:38;;;;;;;2.43;1.23;;;15.60;1.00;;;;;;8308214;28;20194;-78
2023/03/31 10:31:38;;;;;;;2.60;1.30;;;15.70;1.00;;;;;;8311191;28;20207;-77
2023/03/31 10:35:40;;;;;;;4.70;1.47;;;16.30;1.00;;;;;;8319390;28;20198;-78
2023/03/31 10:39:43;;;;;;;2.80;1.50;;;16.90;1.00;;;;;;8320321;28;20278;-77
2023/03/31 10:43:58;;;;;;;6.30;1.93;;;17.00;1.00;;;;;;8337314;28;20217;-78
2023/03/31 10:48:00;;;;;;;5.43;1.90;;;17.40;1.00;;;;;;8343909;28;20194;-78
2023/03/31 10:52:01;;;;;;;4.33;1.70;;;17.50;1.00;;;;;;8340017;28;20202;-76
2023/03/31 10:56:21;;;;;;;4.30;1.80;;;17.60;1.00;;;;;;8341251;28;20512;-75
2023/03/31 11:00:39;;;;;;;4.30;2.00;;;17.70;1.00;;;;;;8323156;28;20195;-77
2023/03/31 11:05:12;;;;;;;5.17;2.50;;;17.80;1.00;;;;;;8304698;28;20198;-77
2023/03/31 11:09:30;;;;;;;4.83;2.10;;;18.10;1.00;;;;;;8302374;28;20225;-77
2023/03/31 11:13:43;;;;;;;5.73;2.30;;;18.40;1.00;;;;;;8304999;28;20214;-77
2023/03/31 11:18:12;;;;;;;5.30;2.20;;;18.20;1.00;;;;;;8307535;28;20190;-78
2023/03/31 11:22:41;;;;;;;3.27;1.53;;;17.80;1.00;;;;;;8301715;28;20748;-77
2023/03/31 11:26:47;;;;;;;3.67;1.60;;;17.20;1.00;;;;;;8302448;28;20194;-77
2023/03/31 11:31:29;;;;;;;5.37;1.50;;;16.70;1.00;;;;;;8307476;28;20206;-77
2023/03/31 11:35:43;;;;;;;6.50;1.40;;;16.60;1.00;;;;;;8311027;28;20216;-76
2023/03/31 11:40:08;;;;;;;5.30;1.67;;;16.80;1.00;;;;;;8310379;28;20262;-77
2023/03/31 11:44:11;;;;;;;5.00;1.50;;;17.10;1.00;;;;;;8303774;28;20193;-77
2023/03/31 11:49:01;;;;;;;3.83;1.37;;;17.00;1.00;;;;;;8307921;28;20182;-77
2023/03/31 11:53:06;;;;;;;5.37;1.30;;;16.70;1.00;;;;;;8205937;28;20249;-77
2023/03/31 11:57:22;;;;;;;5.63;1.73;;;16.40;1.00;;;;;;8315185;28;20191;-77
2023/03/31 12:01:43;;;;;;;6.73;1.50;;;16.20;1.00;;;;;;8315623;28;20517;-77
2023/03/31 12:05:56;;;;;;;3.57;1.43;;;16.20;1.00;;;;;;8309814;28;20183;-77
2023/03/31 12:10:15;;;;;;;2.77;1.37;;;16.50;1.00;;;;;;8315541;28;20183;-78
2023/03/31 12:14:49;;;;;;;4.57;1.37;;;16.70;1.00;;;;;;8306576;28;20197;-76
2023/03/31 12:19:08;;;;;;;3.00;1.10;;;16.70;1.00;;;;;;8297237;28;20190;-78
2023/03/31 12:23:17;;;;;;;3.30;1.00;;;16.60;1.00;;;;;;8307814;28;20209;-78
2023/03/31 12:27:33;;;;;;;2.87;1.10;;;16.30;1.00;;;;;;8309797;28;20191;-77
2023/03/31 12:31:37;;;;;;;2.20;1.20;;;16.00;1.00;;;;;;8305661;28;20198;-77
2023/03/31 12:35:57;;;;;;;3.80;1.40;;;15.90;1.00;;;;;;8308774;28;20221;-77
2023/03/31 12:40:16;;;;;;;1.60;0.97;;;15.70;1.00;;;;;;8303940;28;20237;-77
2023/03/31 12:44:51;;;;;;;4.90;1.43;;;15.50;1.00;;;;;;8307205;28;20237;-77
2023/03/31 12:48:58;;;;;;;2.07;1.20;;;15.30;1.00;;;;;;8305107;28;20532;-77
2023/03/31 12:53:31;;;;;;;2.20;1.50;;;15.10;1.00;;;;;;8307143;28;20210;-77
2023/03/31 12:57:32;;;;;;;3.20;1.47;;;14.90;1.00;;;;;;8307926;28;20174;-77
2023/03/31 13:01:32;;;;;;;1.97;1.30;;;14.70;1.00;;;;;;8315436;28;20214;-77
2023/03/31 13:05:36;;;;;;;3.63;1.53;;;14.60;1.00;;;;;;8309371;28;20190;-78
2023/03/31 13:09:43;;;;;;;3.60;1.40;;;14.70;1.00;;;;;;8308995;28;20183;-77
2023/03/31 13:14:01;;;;;;;4.33;1.47;;;14.60;1.00;;;;;;8314901;28;20214;-76
2023/03/31 13:18:04;;;;;;;2.57;1.47;;;14.30;1.00;;;;;;8308021;28;20267;-77
2023/03/31 13:22:05;;;;;;;1.87;1.20;;;14.10;1.00;;;;;;8308465;28;20213;-78
2023/03/31 13:26:32;;;;;;;4.03;1.43;;;14.20;1.00;;;;;;8289784;28;20189;-77
2023/03/31 13:30:36;;;;;;;3.07;1.30;;;14.30;1.00;;;;;;8307630;28;20232;-76
2023/03/31 13:34:42;;;;;;;2.73;1.30;;;14.30;1.00;;;;;;8302885;28;20289;-76
2023/03/31 13:39:42;;;;;;;2.30;1.20;;;14.40;11.60;;;;;;8320035;28;20235;-77
2023/03/31 13:44:08;;;;;;;2.73;1.30;;;14.30;7.40;;;;;;8171086;28;20221;-76
2023/03/31 13:48:18;;;;;;;3.10;1.30;;;14.20;8.30;;;;;;8184821;28;20197;-77
2023/03/31 13:52:59;;;;;;;3.40;1.47;;;14.00;6.80;;;;;;8181396;28;20213;-78
2023/03/31 13:57:18;;;;;;;2.23;1.47;;;13.70;12.70;;;;;;8294133;28;20188;-76
2023/03/31 14:01:44;;;;;;;2.30;1.40;;;13.60;26.50;;;;;;8307403;28;20206;-77
2023/03/31 14:06:05;;;;;;;2.43;1.20;;;13.50;60.10;;;;;;8320065;28;20214;-75
2023/03/31 14:10:32;;;;;;;2.20;1.40;;;13.40;79.90;;;;;;8325235;28;20242;-77
2023/03/31 14:14:32;;;;;;;4.43;1.23;;;13.40;60.00;;;;;;8324461;28;20206;-77
2023/03/31 14:18:37;;;;;;;1.90;1.30;;;13.30;90.50;;;;;;8318001;28;20218;-76
2023/03/31 14:22:53;;;;;;;1.87;1.40;;;13.40;99.90;;;;;;8290606;28;20297;-75
2023/03/31 14:27:37;;;;;;;2.57;1.57;;;13.60;96.90;;;;;;8307491;28;20174;-76
2023/03/31 14:32:01;;;;;;;2.60;1.80;;;13.80;99.10;;;;;;8207756;28;20226;-77
2023/03/31 14:36:18;;;;;;;3.33;1.77;;;13.90;99.90;;;;;;8291805;28;20219;-77
2023/03/31 14:40:19;;;;;;;2.73;2.00;;;13.80;99.90;;;;;;8319568;28;20193;-77
2023/03/31 14:44:20;;;;;;;3.10;1.90;;;13.70;99.90;;;;;;8307320;28;20186;-78
2023/03/31 14:48:22;;;;;;;4.37;1.90;;;13.60;99.90;;;;;;8301826;28;20183;-77
2023/03/31 14:52:23;;;;;;;2.53;1.80;;;13.20;99.90;;;;;;8305908;28;20210;-78
2023/03/31 14:56:39;;;;;;;1.93;1.30;;;13.00;99.90;;;;;;8302100;28;20182;-77
2023/03/31 15:00:40;;;;;;;3.33;1.80;;;12.80;99.90;;;;;;8306884;28;20252;-78
2023/03/31 15:04:45;;;;;;;3.67;2.10;;;12.70;99.90;;;;;;8309014;28;20182;-78
2023/03/31 15:08:46;;;;;;;2.33;1.83;;;12.60;99.90;;;;;;8306585;28;20183;-78
2023/03/31 15:12:48;;;;;;;2.57;1.70;;;12.50;99.90;;;;;;8308951;28;20213;-78
2023/03/31 15:16:51;;;;;;;3.50;1.90;;;12.50;99.90;;;;;;8315797;28;20179;-76
2023/03/31 15:20:52;;;;;;;3.10;2.03;;;12.40;99.90;;;;;;8314187;28;20191;-78
2023/03/31 15:24:54;;;;;;;5.73;2.20;;;12.40;99.90;;;;;;8312438;28;20190;-77
2023/03/31 15:29:00;;;;;;;3.27;2.17;;;12.30;99.90;;;;;;8320310;28;20190;-77
2023/03/31 15:33:05;;;;;;;3.73;1.90;;;12.20;99.90;;;;;;8313042;28;20229;-78
2023/03/31 15:37:06;;;;;;;4.17;2.33;;;12.20;99.90;;;;;;8306195;28;20593;-77
2023/03/31 15:41:20;;;;;;;4.30;2.20;;;12.20;99.90;;;;;;8311195;28;20217;-77
2023/03/31 15:45:24;;;;;;;3.63;1.87;;;12.30;1.00;;;;;;8308771;28;20187;-77
2023/03/31 15:49:26;;;;;;;2.57;1.80;;;12.30;1.00;;;;;;8309543;28;20193;-77
2023/03/31 15:53:52;;;;;;;3.83;1.90;;;12.30;1.00;;;;;;8314630;28;20213;-77
2023/03/31 15:57:55;;;;;;;2.27;1.67;;;12.30;1.00;;;;;;8305210;28;20187;-77
2023/03/31 16:01:58;;;;;;;3.03;1.43;;;12.30;1.00;;;;;;8294278;28;20195;-77
2023/03/31 16:06:14;;;;;;;2.47;1.77;;;12.10;1.00;;;;;;8328229;28;20183;-77
2023/03/31 16:10:20;;;;;;;3.47;1.90;;;12.10;1.00;;;;;;8307366;28;20227;-78
2023/03/31 16:14:31;;;;;;;3.50;1.90;;;12.00;1.00;;;;;;8314359;28;20193;-76
2023/03/31 16:18:36;;;;;;;3.23;2.20;;;11.90;1.00;;;;;;8306037;28;20183;-76
2023/03/31 16:22:47;;;;;;;1.90;1.70;;;12.00;51.50;;;;;;8306474;28;20194;-77
2023/03/31 16:26:48;;;;;;;3.03;2.00;;;12.00;49.00;;;;;;8309946;28;20179;-76
2023/03/31 16:30:49;;;;;;;2.97;1.60;;;11.90;77.90;;;;;;8304816;28;20281;-76
2023/03/31 16:34:59;;;;;;;3.40;2.00;;;12.00;66.90;;;;;;8304504;28;20207;-76
2023/03/31 16:39:03;;;;;;;5.03;3.00;;;12.10;94.10;;;;;;8313582;28;20195;-76
2023/03/31 16:43:11;;;;;;;4.30;2.87;;;12.10;1.30;;;;;;8309882;28;20189;-76
2023/03/31 16:47:12;;;;;;;3.80;1.80;;;12.10;1.00;;;;;;8300275;28;20180;-77
2023/03/31 16:51:13;;;;;;;5.50;2.70;;;12.00;1.00;;;;;;8311287;28;20313;-77
2023/03/31 16:55:14;;;;;;;4.20;2.60;;;12.00;1.00;;;;;;8312962;28;20194;-76
2023/03/31 16:59:15;;;;;;;5.27;3.33;;;12.00;1.00;;;;;;8308446;28;20235;-77
2023/03/31 17:03:17;;;;;;;4.50;2.93;;;11.90;99.90;;;;;;8309711;28;20186;-76
2023/03/31 17:07:17;;;;;;;4.07;2.47;;;11.80;99.90;;;;;;8314627;28;20187;-76
2023/03/31 17:11:18;;;;;;;4.43;2.60;;;11.70;99.90;;;;;;8304847;28;20302;-76
2023/03/31 17:15:19;;;;;;;4.60;2.53;;;11.50;99.90;;;;;;8311861;28;20237;-76
2023/03/31 17:19:21;;;;;;;3.93;2.10;;;11.20;99.90;;;;;;8306675;28;20187;-75
2023/03/31 17:23:22;;;;;;;5.10;2.50;;;10.90;1.00;;;;;;8311053;28;20209;-77
2023/03/31 17:27:27;;;;;;;4.07;2.00;;;10.70;1.00;;;;;;8311138;28;20189;-77
2023/03/31 17:31:29;;;;;;;3.30;2.00;;;10.40;68.30;;;;;;8317035;28;21729;-75
2023/03/31 17:35:30;;;;;;;3.70;2.13;;;10.20;99.90;;;;;;8320998;28;20278;-77
2023/03/31 17:39:31;;;;;;;2.83;2.00;;;10.00;99.90;;;;;;8323161;28;20185;-77
2023/03/31 17:43:34;;;;;;;3.13;1.90;;;9.90;99.90;;;;;;8326507;28;20184;-77
2023/03/31 17:47:43;;;;;;;2.67;1.90;;;9.70;1.00;;;;;;8464573;27;20574;-70
2023/03/31 17:51:44;;;;;;;2.27;2.00;;;9.70;66.00;;;;;;8420427;28;20191;-66
2023/03/31 17:55:45;;;;;;;2.50;1.90;;;9.70;99.90;;;;;;8423187;28;20229;-66
2023/03/31 17:59:47;;;;;;;3.47;2.23;;;9.70;99.90;;;;;;8436230;28;20184;-65
2023/03/31 18:03:48;;;;;;;2.97;1.90;;;9.70;99.90;;;;;;8439726;28;20230;-64
2023/03/31 18:07:50;;;;;;;2.97;2.00;;;9.70;99.90;;;;;;8418577;28;20194;-65
2023/03/31 18:11:52;;;;;;;2.90;1.93;;;9.70;99.90;;;;;;8421854;28;20196;-64
2023/03/31 18:15:53;;;;;;;3.80;2.13;;;9.60;99.90;;;;;;8429167;28;20190;-65
2023/03/31 18:19:55;;;;;;;4.13;2.40;;;9.50;99.90;;;;;;8420348;28;20200;-65
2023/03/31 18:23:56;;;;;;;3.13;2.07;;;9.40;99.90;;;;;;8417320;28;20204;-66
2023/03/31 18:27:57;;;;;;;3.60;1.80;;;9.20;1.00;;;;;;8417462;28;20490;-66
2023/03/31 18:31:58;;;;;;;2.37;1.80;;;9.00;99.90;;;;;;8419185;28;20524;-66
2023/03/31 18:35:59;;;;;;;5.77;2.30;;;9.00;1.00;;;;;;8437436;28;20274;-66
2023/03/31 18:40:00;;;;;;;4.53;2.50;;;9.00;99.90;;;;;;8438824;28;20200;-65
2023/03/31 18:44:01;;;;;;;1.90;1.57;;;9.10;99.90;;;;;;8438312;28;20212;-66
2023/03/31 18:48:02;;;;;;;3.57;2.00;;;9.20;1.00;;;;;;8437438;28;20220;-66
2023/03/31 18:52:04;;;;;;;3.30;2.10;;;9.30;99.90;;;;;;8419493;28;20191;-67
2023/03/31 18:56:05;;;;;;;4.93;2.00;;;9.30;99.90;;;;;;8414787;28;20195;-66
2023/03/31 19:00:06;;;;;;;5.57;3.10;;;9.40;99.90;;;;;;8414262;28;20264;-65
2023/03/31 19:04:08;;;;;;;6.13;3.80;;;9.50;88.90;;;;;;8401219;28;20224;-66
2023/03/31 19:08:09;;;;;;;6.53;3.93;;;9.40;13.80;;;;;;8397016;28;20243;-66
2023/03/31 19:12:10;;;;;;;7.77;3.67;;;9.50;1.00;;;;;;8398295;28;20185;-65
2023/03/31 19:16:13;;;;;;;7.23;3.33;;;9.60;99.90;;;;;;8411041;28;20206;-65
2023/03/31 19:20:16;;;;;;;5.90;2.53;;;9.70;1.00;;;;;;8415868;28;20285;-64
2023/03/31 19:24:17;;;;;;;4.50;2.63;;;9.70;1.00;;;;;;8406270;28;20354;-66
2023/03/31 19:28:19;;;;;;;5.57;3.10;;;9.80;1.00;;;;;;8397751;28;20244;-64
2023/03/31 19:32:20;;;;;;;3.70;2.13;;;9.80;1.00;;;;;;8395727;28;20186;-66
2023/03/31 19:36:21;;;;;;;3.63;2.00;;;9.80;1.00;;;;;;8411440;28;20221;-66
2023/03/31 19:40:22;;;;;;;2.90;1.87;;;9.70;38.30;;;;;;8396985;28;20189;-65
2023/03/31 19:44:23;;;;;;;3.60;2.20;;;9.70;99.90;;;;;;8411586;28;20247;-65
2023/03/31 19:48:25;;;;;;;6.00;2.40;;;9.60;99.90;;;;;;8411570;28;20189;-65
2023/03/31 19:52:28;;;;;;;2.83;2.33;;;9.60;1.00;;;;;;8392495;28;20198;-66
2023/03/31 19:56:30;;;;;;;4.27;2.30;;;9.50;99.90;;;;;;8392497;28;20208;-67
2023/03/31 20:00:31;;;;;;;4.43;2.27;;;9.40;1.00;;;;;;8396564;28;20218;-67
2023/03/31 20:04:32;;;;;;;3.77;2.60;;;9.30;15.70;;;;;;8416399;28;20208;-65
2023/03/31 20:08:35;;;;;;;3.33;2.40;;;9.10;99.90;;;;;;8395014;28;20186;-66
2023/03/31 20:12:36;;;;;;;3.93;2.83;;;9.10;99.90;;;;;;8396872;28;20219;-65
2023/03/31 20:16:37;;;;;;;3.50;2.37;;;9.00;99.90;;;;;;8404430;28;20192;-65
2023/03/31 20:20:39;;;;;;;5.23;2.93;;;8.80;1.00;;;;;;8398649;28;20219;-67
2023/03/31 20:24:40;;;;;;;3.87;2.30;;;8.80;90.40;;;;;;8413827;28;20209;-65
2023/03/31 20:28:42;;;;;;;3.97;2.73;;;8.70;99.90;;;;;;8395171;28;20270;-66
2023/03/31 20:32:43;;;;;;;3.53;2.50;;;8.70;1.00;;;;;;8394754;28;20219;-66
2023/03/31 20:36:47;;;;;;;2.13;1.73;;;8.70;1.00;;;;;;8412360;28;20213;-66
2023/03/31 20:40:48;;;;;;;3.30;2.10;;;8.70;99.90;;;;;;8388735;28;20227;-67
2023/03/31 20:44:50;;;;;;;2.93;2.07;;;8.70;99.90;;;;;;8408464;28;23123;-66
2023/03/31 20:48:54;;;;;;;2.73;1.90;;;8.70;1.00;;;;;;8408106;28;20199;-64
2023/03/31 20:52:55;;;;;;;3.23;2.13;;;8.70;99.90;;;;;;8391203;28;20196;-64
2023/03/31 20:56:56;;;;;;;3.27;1.90;;;8.70;99.90;;;;;;8391832;28;20201;-65
2023/03/31 21:00:57;;;;;;;3.67;2.10;;;8.60;99.90;;;;;;8408695;28;20318;-64
2023/03/31 21:04:58;;;;;;;2.83;2.40;;;8.60;98.10;;;;;;8386897;28;20357;-65
2023/03/31 21:08:59;;;;;;;3.47;2.27;;;8.60;99.90;;;;;;8388295;28;20184;-64
2023/03/31 21:13:00;;;;;;;5.43;2.40;;;8.60;1.00;;;;;;8386756;28;20188;-65
2023/03/31 21:17:01;;;;;;;3.10;2.33;;;8.60;99.90;;;;;;8408837;28;20199;-66
2023/03/31 21:21:08;;;;;;;4.03;2.00;;;8.60;99.90;;;;;;8386036;28;20199;-64
2023/03/31 21:25:09;;;;;;;4.47;2.13;;;8.70;1.00;;;;;;8388345;28;20260;-64
2023/03/31 21:29:10;;;;;;;5.73;2.43;;;8.70;73.30;;;;;;8390419;28;20184;-64
2023/03/31 21:33:11;;;;;;;5.60;2.77;;;8.60;1.00;;;;;;8407390;28;20208;-64
2023/03/31 21:37:12;;;;;;;3.90;2.13;;;8.50;1.00;;;;;;8407910;28;20261;-64